createdAt,value
2018-07-26T00:01:53.186Z,33.06
2018-07-26T00:04:24.431Z,32.99
2018-07-26T00:06:56.134Z,32.99
2018-07-26T00:09:29.232Z,32.96
2018-07-26T00:12:01.288Z,32.89
2018-07-26T00:14:33.703Z,32.87
2018-07-26T00:17:05.969Z,32.85
2018-07-26T00:19:39.534Z,32.87
2018-07-26T00:22:11.418Z,32.96
2018-07-26T00:24:47.839Z,33.01
2018-07-26T00:27:19.321Z,33.14
2018-07-26T00:29:53.661Z,33.19
2018-07-26T00:32:26.009Z,33.27
2018-07-26T00:34:57.254Z,33.31
2018-07-26T00:37:29.547Z,33.33
2018-07-26T00:40:01.814Z,33.33
2018-07-26T00:42:37.661Z,33.32
2018-07-26T00:45:09.163Z,33.32
2018-07-26T00:47:40.458Z,33.26
2018-07-26T00:50:12.783Z,33.22
2018-07-26T00:52:45.818Z,33.14
2018-07-26T00:55:18.332Z,32.98
2018-07-26T00:57:50.506Z,32.85
2018-07-26T01:00:22.763Z,32.79
2018-07-26T01:02:56.952Z,32.70
2018-07-26T01:05:29.130Z,32.68
2018-07-26T01:08:00.660Z,32.67
2018-07-26T01:10:35.459Z,32.69
2018-07-26T01:13:11.258Z,32.72
2018-07-26T01:15:43.477Z,32.74
2018-07-26T01:18:15.781Z,32.78
2018-07-26T01:20:48.123Z,32.77
2018-07-26T01:23:19.625Z,32.69
2018-07-26T01:25:51.994Z,32.64
2018-07-26T01:28:23.954Z,32.65
2018-07-26T01:30:56.210Z,32.63
2018-07-26T01:33:30.799Z,32.56
2018-07-26T01:36:03.040Z,32.56
2018-07-26T01:38:36.224Z,32.51
2018-07-26T01:41:09.394Z,32.43
2018-07-26T01:47:23.915Z,32.42
2018-07-26T01:49:57.086Z,32.49
2018-07-26T01:52:29.639Z,32.45
2018-07-26T01:55:02.030Z,32.49
2018-07-26T01:57:33.284Z,32.45
2018-07-26T02:00:08.858Z,32.45
2018-07-26T02:02:40.377Z,32.38
2018-07-26T02:07:39.469Z,32.31
2018-07-26T02:10:10.767Z,32.21
2018-07-26T02:12:42.993Z,32.30
2018-07-26T02:15:17.745Z,32.39
2018-07-26T02:17:49.827Z,32.46
2018-07-26T02:20:21.848Z,32.48
2018-07-26T02:22:55.247Z,32.47
2018-07-26T02:25:26.462Z,32.51
2018-07-26T02:27:57.833Z,32.56
2018-07-26T02:30:30.128Z,32.67
2018-07-26T02:33:02.337Z,32.77
2018-07-26T02:35:36.601Z,32.75
2018-07-26T02:38:09.243Z,32.73
2018-07-26T02:40:42.417Z,32.75
2018-07-26T02:43:20.451Z,32.67
2018-07-26T02:45:55.425Z,32.65
2018-07-26T02:48:27.878Z,32.63
2018-07-26T02:51:00.793Z,32.65
2018-07-26T02:53:33.294Z,32.68
2018-07-26T02:56:05.375Z,32.66
2018-07-26T02:58:36.563Z,32.64
2018-07-26T03:01:09.150Z,32.56
2018-07-26T03:03:41.354Z,32.70
2018-07-26T03:06:16.537Z,32.71
2018-07-26T03:08:49.925Z,32.74
2018-07-26T03:11:21.892Z,32.70
2018-07-26T03:13:59.112Z,32.55
2018-07-26T03:16:31.615Z,32.62
2018-07-26T03:19:02.902Z,32.67
2018-07-26T03:21:36.718Z,32.68
2018-07-26T03:24:08.085Z,32.66
2018-07-26T03:26:40.266Z,32.65
2018-07-26T03:29:12.498Z,32.66
2018-07-26T03:31:43.688Z,32.72
2018-07-26T03:34:16.144Z,32.75
2018-07-26T03:36:49.936Z,32.72
2018-07-26T03:39:22.278Z,32.78
2018-07-26T03:41:55.242Z,32.79
2018-07-26T03:44:28.261Z,32.77
2018-07-26T03:47:03.893Z,32.81
2018-07-26T03:49:40.911Z,32.78
2018-07-26T03:52:13.060Z,32.79
2018-07-26T03:54:46.684Z,32.79
2018-07-26T03:57:17.954Z,32.82
2018-07-26T03:59:52.269Z,32.90
2018-07-26T04:02:24.979Z,32.82
2018-07-26T04:04:56.306Z,32.91
2018-07-26T04:07:30.041Z,32.90
2018-07-26T04:10:04.486Z,32.44
2018-07-26T04:12:37.234Z,33.03
2018-07-26T04:15:09.975Z,33.26
2018-07-26T04:17:51.006Z,33.56
2018-07-26T04:20:26.511Z,33.79
2018-07-26T04:22:58.928Z,34.05
2018-07-26T04:25:32.192Z,34.24
2018-07-26T04:28:07.125Z,34.54
2018-07-26T04:30:40.517Z,34.79
2018-07-26T04:33:12.710Z,34.96
2018-07-26T04:35:48.538Z,35.21
2018-07-26T04:38:23.709Z,35.36
2018-07-26T04:40:56.176Z,35.53
2018-07-26T04:43:28.166Z,35.66
2018-07-26T04:46:00.742Z,35.66
2018-07-26T04:48:35.729Z,35.46
2018-07-26T04:51:09.860Z,35.51
2018-07-26T04:53:41.068Z,35.62
2018-07-26T04:56:12.338Z,35.43
2018-07-26T04:58:44.488Z,35.68
2018-07-26T05:01:17.421Z,36.08
2018-07-26T05:03:50.660Z,36.22
2018-07-26T05:06:27.687Z,36.46
2018-07-26T05:08:59.575Z,36.54
2018-07-26T05:11:31.766Z,36.90
2018-07-26T05:14:03.824Z,37.29
2018-07-26T05:16:35.666Z,37.51
2018-07-26T05:19:06.912Z,37.62
2018-07-26T05:21:41.551Z,37.82
2018-07-26T05:24:13.376Z,38.20
2018-07-26T05:26:47.784Z,38.44
2018-07-26T05:29:20.007Z,38.62
2018-07-26T05:31:52.843Z,38.79
2018-07-26T05:34:26.579Z,38.86
2018-07-26T05:36:58.206Z,38.86
2018-07-26T05:39:29.533Z,38.89
2018-07-26T05:42:01.758Z,39.22
2018-07-26T05:44:34.238Z,39.57
2018-07-26T05:47:07.655Z,39.89
2018-07-26T05:49:40.485Z,39.97
2018-07-26T05:52:12.704Z,39.93
2018-07-26T05:54:45.315Z,40.10
2018-07-26T05:57:19.009Z,40.32
2018-07-26T05:59:50.843Z,40.64
2018-07-26T06:02:24.283Z,40.84
2018-07-26T06:04:56.503Z,40.90
2018-07-26T06:07:28.448Z,40.72
2018-07-26T06:10:00.101Z,40.90
2018-07-26T06:12:31.931Z,41.03
2018-07-26T06:15:08.328Z,41.15
2018-07-26T06:17:40.454Z,41.03
2018-07-26T06:20:12.820Z,41.11
2018-07-26T06:22:46.028Z,41.07
2018-07-26T06:25:17.540Z,40.96
2018-07-26T06:27:49.079Z,40.89
2018-07-26T06:30:24.248Z,40.88
2018-07-26T06:32:56.736Z,41.06
2018-07-26T06:35:28.692Z,41.00
2018-07-26T06:38:05.334Z,41.33
2018-07-26T06:40:40.655Z,41.49
2018-07-26T06:43:13.490Z,41.70
2018-07-26T06:45:46.817Z,41.46
2018-07-26T06:48:19.475Z,42.06
2018-07-26T06:50:52.316Z,41.96
2018-07-26T06:53:23.624Z,42.12
2018-07-26T06:55:57.265Z,42.21
2018-07-26T06:58:30.379Z,42.13
2018-07-26T07:01:02.567Z,42.12
2018-07-26T07:03:33.923Z,42.19
2018-07-26T07:06:05.245Z,42.22
2018-07-26T07:08:38.540Z,42.27
2018-07-26T07:11:13.010Z,42.41
2018-07-26T07:13:45.068Z,42.59
2018-07-26T07:16:19.710Z,42.77
2018-07-26T07:18:53.809Z,43.02
2018-07-26T07:21:26.176Z,43.05
2018-07-26T07:23:58.156Z,42.99
2018-07-26T07:26:31.406Z,43.15
2018-07-26T07:29:07.616Z,43.38
2018-07-26T07:31:42.376Z,43.43
2018-07-26T07:34:13.998Z,43.31
2018-07-26T07:36:49.275Z,43.42
2018-07-26T07:39:21.129Z,43.47
2018-07-26T07:41:52.795Z,43.45
2018-07-26T07:44:28.280Z,43.87
2018-07-26T07:46:59.818Z,43.94
2018-07-26T07:49:31.241Z,43.94
2018-07-26T07:52:04.456Z,44.04
2018-07-26T07:54:35.685Z,44.10
2018-07-26T07:57:07.868Z,44.37
2018-07-26T07:59:39.528Z,44.38
2018-07-26T08:02:12.910Z,44.21
2018-07-26T08:04:45.038Z,43.91
2018-07-26T08:07:16.481Z,43.85
2018-07-26T08:09:49.699Z,43.97
2018-07-26T08:12:24.328Z,44.26
2018-07-26T08:14:58.522Z,44.37
2018-07-26T08:17:31.165Z,44.55
2018-07-26T08:20:03.390Z,44.20
2018-07-26T08:22:36.581Z,44.17
2018-07-26T08:25:10.154Z,44.05
2018-07-26T08:27:43.350Z,43.99
2018-07-26T08:30:19.132Z,44.11
2018-07-26T08:32:51.115Z,44.40
2018-07-26T08:35:25.284Z,44.18
2018-07-26T08:37:57.255Z,44.15
2018-07-26T08:40:29.801Z,44.30
2018-07-26T08:43:01.060Z,44.09
2018-07-26T08:45:32.855Z,44.20
2018-07-26T08:48:07.346Z,44.29
2018-07-26T08:50:38.724Z,44.41
2018-07-26T08:53:11.211Z,44.38
2018-07-26T08:55:42.611Z,44.28
2018-07-26T08:58:17.345Z,44.16
2018-07-26T09:00:49.928Z,44.21
2018-07-26T09:03:21.386Z,44.37
2018-07-26T09:05:53.662Z,44.64
2018-07-26T09:08:32.016Z,44.70
2018-07-26T09:11:08.696Z,44.66
2018-07-26T09:13:41.433Z,44.68
2018-07-26T09:16:14.508Z,44.65
2018-07-26T09:18:46.025Z,44.90
2018-07-26T09:21:17.441Z,45.03
2018-07-26T09:23:50.001Z,44.88
2018-07-26T09:26:22.239Z,44.84
2018-07-26T09:28:55.984Z,44.84
2018-07-26T09:31:29.271Z,44.45
2018-07-26T09:34:01.537Z,44.58
2018-07-26T09:36:36.813Z,45.03
2018-07-26T09:39:13.584Z,45.13
2018-07-26T09:41:47.353Z,45.02
2018-07-26T09:44:22.455Z,44.64
2018-07-26T09:46:54.857Z,45.05
2018-07-26T09:49:29.211Z,45.49
2018-07-26T09:52:04.643Z,45.40
2018-07-26T09:54:36.823Z,45.72
2018-07-26T09:57:12.387Z,46.10
2018-07-26T09:59:45.240Z,45.98
2018-07-26T10:02:24.962Z,45.88
2018-07-26T10:05:04.926Z,45.49
2018-07-26T10:07:45.186Z,45.29
2018-07-26T10:10:24.104Z,45.19
2018-07-26T10:13:10.272Z,45.08
2018-07-26T10:15:43.616Z,45.49
2018-07-26T10:18:18.476Z,45.62
2018-07-26T10:20:52.325Z,45.69
2018-07-26T10:23:27.193Z,46.14
2018-07-26T10:26:02.222Z,46.26
2018-07-26T10:28:35.772Z,46.22
2018-07-26T10:31:12.246Z,46.12
2018-07-26T10:33:45.346Z,46.48
2018-07-26T10:36:17.535Z,47.07
2018-07-26T10:38:52.760Z,47.00
2018-07-26T10:41:26.174Z,47.25
2018-07-26T10:44:03.704Z,46.97
2018-07-26T10:46:47.290Z,46.91
2018-07-26T10:49:20.375Z,46.86
2018-07-26T10:51:52.594Z,46.96
2018-07-26T10:54:25.757Z,46.87
2018-07-26T10:56:58.962Z,46.89
2018-07-26T10:59:32.915Z,46.95
2018-07-26T11:02:05.146Z,46.50
2018-07-26T11:04:39.871Z,46.67
2018-07-26T11:07:13.278Z,47.01
2018-07-26T11:09:48.097Z,47.30
2018-07-26T11:12:24.036Z,47.25
2018-07-26T11:15:07.368Z,47.30
2018-07-26T11:17:41.232Z,47.42
2018-07-26T11:20:22.472Z,47.33
2018-07-26T11:22:56.939Z,47.23
2018-07-26T11:25:31.204Z,46.82
2018-07-26T11:28:04.852Z,46.65
2018-07-26T11:30:40.387Z,46.64
2018-07-26T11:33:14.370Z,46.87
2018-07-26T11:35:47.904Z,47.45
2018-07-26T11:38:20.431Z,47.43
2018-07-26T11:40:55.841Z,47.66
2018-07-26T11:43:29.760Z,47.12
2018-07-26T11:46:03.946Z,47.13
2018-07-26T11:48:41.336Z,47.81
2018-07-26T11:51:17.597Z,47.91
2018-07-26T11:53:55.664Z,47.75
2018-07-26T11:56:30.541Z,48.22
2018-07-26T11:59:05.231Z,48.02
2018-07-26T12:01:40.461Z,48.06
2018-07-26T12:04:24.021Z,47.56
2018-07-26T12:07:01.886Z,47.57
2018-07-26T12:09:36.017Z,47.66
2018-07-26T12:12:12.641Z,47.62
2018-07-26T12:14:53.600Z,47.12
2018-07-26T12:17:32.545Z,47.04
2018-07-26T12:20:07.644Z,47.13
2018-07-26T12:22:43.702Z,47.63
2018-07-26T12:25:19.757Z,47.68
2018-07-26T12:27:55.338Z,47.97
2018-07-26T12:30:36.572Z,48.20
2018-07-26T12:33:14.995Z,48.15
2018-07-26T12:35:50.446Z,47.74
2018-07-26T12:38:26.376Z,47.36
2018-07-26T12:41:00.702Z,47.34
2018-07-26T12:43:34.387Z,47.37
2018-07-26T12:46:09.350Z,47.89
2018-07-26T12:48:44.280Z,47.94
2018-07-26T12:51:21.305Z,47.81
2018-07-26T12:53:57.646Z,47.57
2018-07-26T12:56:34.628Z,47.45
2018-07-26T12:59:10.932Z,47.54
2018-07-26T13:01:45.973Z,47.71
2018-07-26T13:04:19.333Z,48.21
2018-07-26T13:06:53.962Z,48.35
2018-07-26T13:09:28.268Z,48.51
2018-07-26T13:12:03.323Z,49.02
2018-07-26T13:14:38.585Z,49.26
2018-07-26T13:17:13.965Z,49.22
2018-07-26T13:19:47.668Z,48.86
2018-07-26T13:22:22.720Z,48.63
2018-07-26T13:25:00.318Z,48.46
2018-07-26T13:27:36.752Z,48.40
2018-07-26T13:30:12.208Z,48.40
2018-07-26T13:32:49.072Z,48.74
2018-07-26T13:35:24.577Z,49.10
2018-07-26T13:37:58.357Z,49.00
2018-07-26T13:40:32.964Z,48.82
2018-07-26T13:43:07.532Z,48.81
2018-07-26T13:45:41.009Z,49.08
2018-07-26T13:48:15.730Z,49.07
2018-07-26T13:50:51.468Z,49.13
2018-07-26T13:53:28.096Z,48.85
2018-07-26T13:56:05.649Z,48.88
2018-07-26T13:58:39.135Z,48.77
2018-07-26T14:01:17.229Z,49.10
2018-07-26T14:03:56.126Z,48.36
2018-07-26T14:06:30.617Z,48.90
2018-07-26T14:09:10.314Z,49.36
2018-07-26T14:11:44.853Z,49.67
2018-07-26T14:14:19.080Z,49.33
2018-07-26T14:16:53.908Z,49.31
2018-07-26T14:19:28.603Z,49.37
2018-07-26T14:22:06.258Z,49.86
2018-07-26T14:24:41.591Z,50.35
2018-07-26T14:27:24.970Z,50.23
2018-07-26T14:30:05.742Z,49.97
2018-07-26T14:32:50.783Z,49.75
2018-07-26T14:35:33.597Z,49.52
2018-07-26T14:38:10.183Z,49.51
2018-07-26T14:40:49.988Z,49.36
2018-07-26T14:43:24.394Z,49.59
2018-07-26T14:45:57.937Z,49.78
2018-07-26T14:48:37.474Z,49.81
2018-07-26T14:51:16.385Z,49.73
2018-07-26T14:53:55.357Z,49.03
2018-07-26T14:56:31.388Z,48.40
2018-07-26T14:59:12.164Z,48.64
2018-07-26T15:01:49.812Z,48.86
2018-07-26T15:04:26.318Z,49.02
2018-07-26T15:07:06.246Z,48.98
2018-07-26T15:09:44.266Z,49.20
2018-07-26T15:12:25.805Z,48.83
2018-07-26T15:15:08.392Z,48.73
2018-07-26T15:17:43.835Z,48.66
2018-07-26T15:20:17.600Z,48.49
2018-07-26T15:22:51.040Z,48.37
2018-07-26T15:25:28.123Z,48.35
2018-07-26T15:28:02.282Z,48.51
2018-07-26T15:30:36.272Z,48.22
2018-07-26T15:33:10.317Z,48.16
2018-07-26T15:35:46.968Z,48.11
2018-07-26T15:38:22.164Z,48.61
2018-07-26T15:40:56.044Z,48.80
2018-07-26T15:43:30.656Z,48.99
2018-07-26T15:46:10.606Z,49.26
2018-07-26T15:48:46.554Z,49.57
2018-07-26T15:51:21.229Z,49.92
2018-07-26T15:53:57.971Z,50.26
2018-07-26T15:56:31.774Z,50.26
2018-07-26T15:59:07.617Z,49.58
2018-07-26T16:01:41.906Z,49.07
2018-07-26T16:04:16.372Z,48.70
2018-07-26T16:06:52.504Z,48.17
2018-07-26T16:09:27.623Z,47.47
2018-07-26T16:12:01.585Z,46.99
2018-07-26T16:14:39.422Z,46.87
2018-07-26T16:17:14.228Z,46.99
2018-07-26T16:19:48.065Z,47.04
2018-07-26T16:22:26.631Z,47.11
2018-07-26T16:25:00.814Z,47.07
2018-07-26T16:27:36.570Z,47.19
2018-07-26T16:30:19.302Z,47.47
2018-07-26T16:32:55.012Z,47.56
2018-07-26T16:35:28.326Z,47.65
2018-07-26T16:38:04.026Z,48.08
2018-07-26T16:40:40.200Z,47.78
2018-07-26T16:43:15.604Z,47.78
2018-07-26T16:45:50.095Z,47.76
2018-07-26T16:48:24.337Z,47.50
2018-07-26T16:50:58.620Z,47.41
2018-07-26T16:53:33.720Z,47.20
2018-07-26T16:56:08.615Z,47.15
2018-07-26T16:58:43.666Z,47.40
2018-07-26T17:01:18.907Z,47.21
2018-07-26T17:03:55.582Z,47.24
2018-07-26T17:09:10.593Z,47.48
2018-07-26T17:11:46.096Z,47.26
2018-07-26T17:14:37.261Z,47.00
2018-07-26T17:17:11.620Z,46.86
2018-07-26T17:19:45.591Z,47.07
2018-07-26T17:22:18.012Z,46.85
2018-07-26T17:24:53.916Z,46.52
2018-07-26T17:27:27.991Z,46.60
2018-07-26T17:30:03.085Z,46.78
2018-07-26T17:32:43.217Z,46.85
2018-07-26T17:35:18.815Z,46.28
2018-07-26T17:37:52.531Z,46.51
2018-07-26T17:40:25.919Z,46.24
2018-07-26T17:42:59.319Z,45.94
2018-07-26T17:45:33.433Z,45.71
2018-07-26T17:48:07.546Z,45.79
2018-07-26T17:50:41.803Z,45.60
2018-07-26T17:53:18.423Z,45.44
2018-07-26T17:55:51.947Z,45.34
2018-07-26T17:58:27.674Z,44.74
2018-07-26T18:01:01.762Z,44.16
2018-07-26T18:03:37.336Z,43.99
2018-07-26T18:06:11.807Z,43.55
2018-07-26T18:08:51.636Z,43.17
2018-07-26T18:11:27.427Z,42.97
2018-07-26T18:14:02.041Z,42.78
2018-07-26T18:16:36.665Z,42.57
2018-07-26T18:19:11.583Z,42.43
2018-07-26T18:21:45.682Z,42.18
2018-07-26T18:24:20.562Z,42.08
2018-07-26T18:26:53.921Z,42.12
2018-07-26T18:29:28.369Z,41.91
2018-07-26T18:32:05.352Z,41.67
2018-07-26T18:34:42.444Z,41.51
2018-07-26T18:37:17.591Z,41.28
2018-07-26T18:39:51.318Z,41.18
2018-07-26T18:42:26.234Z,40.97
2018-07-26T18:45:09.432Z,40.84
2018-07-26T18:47:44.216Z,40.63
2018-07-26T18:50:20.276Z,40.54
2018-07-26T18:52:55.657Z,40.44
2018-07-26T18:55:28.454Z,40.29
2018-07-26T18:58:02.491Z,40.17
2018-07-26T19:00:36.658Z,40.04
2018-07-26T19:03:10.237Z,39.93
2018-07-26T19:05:43.476Z,39.80
2018-07-26T19:08:18.246Z,39.64
2018-07-26T19:10:52.153Z,39.52
2018-07-26T19:13:24.705Z,39.46
2018-07-26T19:15:58.718Z,39.30
2018-07-26T19:18:33.278Z,39.19
2018-07-26T19:21:08.140Z,39.06
2018-07-26T19:23:41.869Z,38.93
2018-07-26T19:26:18.159Z,38.83
2018-07-26T19:28:51.544Z,38.57
2018-07-26T19:31:26.526Z,38.58
2018-07-26T19:34:06.515Z,38.49
2018-07-26T19:36:42.621Z,38.34
2018-07-26T19:39:15.694Z,38.20
2018-07-26T19:41:49.596Z,38.04
2018-07-26T19:44:23.173Z,37.91
2018-07-26T19:46:58.441Z,37.82
2018-07-26T19:49:32.613Z,37.73
2018-07-26T19:52:05.724Z,37.73
2018-07-26T19:54:39.388Z,37.61
2018-07-26T19:57:13.538Z,37.53
2018-07-26T19:59:51.273Z,37.47
2018-07-26T20:02:27.347Z,37.39
2018-07-26T20:05:01.160Z,37.26
2018-07-26T20:07:36.673Z,37.17
2018-07-26T20:10:12.368Z,37.12
2018-07-26T20:12:44.794Z,36.98
2018-07-26T20:15:22.253Z,36.92
2018-07-26T20:17:58.824Z,36.90
2018-07-26T20:20:30.464Z,36.74
2018-07-26T20:23:07.420Z,36.69
2018-07-26T20:25:46.360Z,36.60
2018-07-26T20:28:24.837Z,36.55
2018-07-26T20:31:02.449Z,36.45
2018-07-26T20:33:36.083Z,36.35
2018-07-26T20:36:10.605Z,36.31
2018-07-26T20:38:47.805Z,36.26
2018-07-26T20:41:20.959Z,36.20
2018-07-26T20:43:57.720Z,35.55
2018-07-26T20:46:31.258Z,36.07
2018-07-26T20:49:04.393Z,36.08
2018-07-26T20:51:39.913Z,35.95
2018-07-26T20:54:14.111Z,35.97
2018-07-26T20:56:48.622Z,35.95
2018-07-26T20:59:23.825Z,35.88
2018-07-26T21:01:58.971Z,35.79
2018-07-26T21:04:32.095Z,35.79
2018-07-26T21:07:05.385Z,35.74
2018-07-26T21:09:40.430Z,35.70
2018-07-26T21:12:16.019Z,35.66
2018-07-26T21:14:50.514Z,35.65
2018-07-26T21:17:24.335Z,35.61
2018-07-26T21:19:59.672Z,35.58
2018-07-26T21:22:35.269Z,35.51
2018-07-26T21:25:18.993Z,35.50
2018-07-26T21:27:52.949Z,35.50
2018-07-26T21:30:27.336Z,35.40
2018-07-26T21:33:03.382Z,35.32
2018-07-26T21:35:37.303Z,35.30
2018-07-26T21:38:13.162Z,35.27
2018-07-26T21:41:01.206Z,35.16
2018-07-26T21:43:37.209Z,35.15
2018-07-26T21:46:11.357Z,35.15
2018-07-26T21:48:48.710Z,35.12
2018-07-26T21:51:23.268Z,35.11
2018-07-26T21:54:13.401Z,35.15
2018-07-26T21:56:47.316Z,35.11
2018-07-26T21:59:24.893Z,35.01
2018-07-26T22:01:57.084Z,35.00
2018-07-26T22:04:30.323Z,34.94
2018-07-26T22:07:01.886Z,34.94
2018-07-26T22:09:35.712Z,34.91
2018-07-26T22:12:10.065Z,34.84
2018-07-26T22:17:21.322Z,34.85
2018-07-26T22:19:58.626Z,34.86
2018-07-26T22:22:33.110Z,34.83
2018-07-26T22:25:09.232Z,34.82
2018-07-26T22:27:42.771Z,34.76
2018-07-26T22:30:20.124Z,34.69
2018-07-26T22:32:55.794Z,34.69
2018-07-26T22:35:29.363Z,34.59
2018-07-26T22:38:02.838Z,34.63
2018-07-26T22:40:36.272Z,34.56
2018-07-26T22:43:14.685Z,34.48
2018-07-26T22:45:49.026Z,34.47
2018-07-26T22:48:24.634Z,34.46
2018-07-26T22:50:58.039Z,34.44
2018-07-26T22:53:31.763Z,34.42
2018-07-26T22:56:05.988Z,34.39
2018-07-26T22:58:42.631Z,34.36
2018-07-26T23:01:15.232Z,34.39
2018-07-26T23:03:49.064Z,34.33
2018-07-26T23:06:24.499Z,34.37
2018-07-26T23:09:00.645Z,34.27
2018-07-26T23:11:37.286Z,34.18
2018-07-26T23:14:11.657Z,34.28
2018-07-26T23:16:45.449Z,34.38
2018-07-26T23:19:21.454Z,34.46
2018-07-26T23:21:55.822Z,34.37
2018-07-26T23:24:31.922Z,34.21
2018-07-26T23:27:06.223Z,34.26
2018-07-26T23:29:38.731Z,34.18
2018-07-26T23:32:11.793Z,34.24
2018-07-26T23:34:45.781Z,34.24
2018-07-26T23:37:20.816Z,34.19
2018-07-26T23:39:55.011Z,34.12
2018-07-26T23:42:30.683Z,34.04
2018-07-26T23:45:02.233Z,34.02
2018-07-26T23:47:38.463Z,34.09
2018-07-26T23:50:21.463Z,34.10
2018-07-26T23:52:57.424Z,34.13
2018-07-26T23:55:31.123Z,33.93
2018-07-26T23:58:05.413Z,33.89
